sensor_id;sensor_type;location;lat;lon;timestamp;P1;durP1;ratioP1;P2;durP2;ratioP2
4698;SDS011;33708;49.466;11.176;2022-07-29T00:02:27;8.30;;;2.23;;
4698;SDS011;33708;49.466;11.176;2022-07-29T00:04:54;11.40;;;2.80;;
4698;SDS011;33708;49.466;11.176;2022-07-29T00:07:26;8.20;;;2.17;;
4698;SDS011;33708;49.466;11.176;2022-07-29T00:09:53;9.07;;;2.53;;
4698;SDS011;33708;49.466;11.176;2022-07-29T00:12:24;9.27;;;2.87;;
4698;SDS011;33708;49.466;11.176;2022-07-29T00:14:52;12.47;;;2.97;;
4698;SDS011;33708;49.466;11.176;2022-07-29T00:17:23;8.60;;;2.73;;
4698;SDS011;33708;49.466;11.176;2022-07-29T00:19:51;12.77;;;2.53;;
4698;SDS011;33708;49.466;11.176;2022-07-29T00:22:22;8.73;;;2.37;;
4698;SDS011;33708;49.466;11.176;2022-07-29T00:24:52;12.17;;;3.10;;
4698;SDS011;33708;49.466;11.176;2022-07-29T00:27:21;6.83;;;2.27;;
4698;SDS011;33708;49.466;11.176;2022-07-29T00:29:48;10.47;;;2.40;;
4698;SDS011;33708;49.466;11.176;2022-07-29T00:32:13;8.63;;;2.93;;
4698;SDS011;33708;49.466;11.176;2022-07-29T00:34:39;16.03;;;2.70;;
4698;SDS011;33708;49.466;11.176;2022-07-29T00:37:24;7.87;;;2.40;;
4698;SDS011;33708;49.466;11.176;2022-07-29T00:39:49;7.40;;;2.73;;
4698;SDS011;33708;49.466;11.176;2022-07-29T00:42:15;9.00;;;2.43;;
4698;SDS011;33708;49.466;11.176;2022-07-29T00:44:41;10.63;;;2.30;;
4698;SDS011;33708;49.466;11.176;2022-07-29T00:47:08;6.70;;;2.20;;
4698;SDS011;33708;49.466;11.176;2022-07-29T00:49:35;13.73;;;2.90;;
4698;SDS011;33708;49.466;11.176;2022-07-29T00:52:01;11.30;;;2.70;;
4698;SDS011;33708;49.466;11.176;2022-07-29T00:54:28;12.60;;;3.10;;
4698;SDS011;33708;49.466;11.176;2022-07-29T00:56:55;11.80;;;2.90;;
4698;SDS011;33708;49.466;11.176;2022-07-29T00:59:27;7.43;;;2.60;;
4698;SDS011;33708;49.466;11.176;2022-07-29T01:01:54;8.27;;;2.50;;
4698;SDS011;33708;49.466;11.176;2022-07-29T01:04:21;8.50;;;2.67;;
4698;SDS011;33708;49.466;11.176;2022-07-29T01:06:50;10.70;;;2.57;;
4698;SDS011;33708;49.466;11.176;2022-07-29T01:09:16;13.03;;;2.87;;
4698;SDS011;33708;49.466;11.176;2022-07-29T01:11:44;7.97;;;2.53;;
4698;SDS011;33708;49.466;11.176;2022-07-29T01:14:12;11.07;;;2.47;;
4698;SDS011;33708;49.466;11.176;2022-07-29T01:16:46;16.40;;;3.10;;
4698;SDS011;33708;49.466;11.176;2022-07-29T01:19:32;7.77;;;2.20;;
4698;SDS011;33708;49.466;11.176;2022-07-29T01:28:30;9.50;;;2.60;;
4698;SDS011;33708;49.466;11.176;2022-07-29T01:31:02;9.17;;;2.60;;
4698;SDS011;33708;49.466;11.176;2022-07-29T01:33:30;16.30;;;3.20;;
4698;SDS011;33708;49.466;11.176;2022-07-29T01:36:14;10.40;;;2.40;;
4698;SDS011;33708;49.466;11.176;2022-07-29T01:38:53;11.57;;;2.53;;
4698;SDS011;33708;49.466;11.176;2022-07-29T01:41:24;10.20;;;2.80;;
4698;SDS011;33708;49.466;11.176;2022-07-29T01:43:59;15.60;;;2.47;;
4698;SDS011;33708;49.466;11.176;2022-07-29T01:46:33;10.37;;;2.67;;
4698;SDS011;33708;49.466;11.176;2022-07-29T01:49:04;8.23;;;2.90;;
4698;SDS011;33708;49.466;11.176;2022-07-29T01:51:41;10.40;;;3.17;;
4698;SDS011;33708;49.466;11.176;2022-07-29T01:54:16;8.63;;;3.03;;
4698;SDS011;33708;49.466;11.176;2022-07-29T01:56:48;9.30;;;2.90;;
4698;SDS011;33708;49.466;11.176;2022-07-29T01:59:16;14.70;;;2.77;;
4698;SDS011;33708;49.466;11.176;2022-07-29T02:01:43;8.80;;;2.80;;
4698;SDS011;33708;49.466;11.176;2022-07-29T02:04:11;15.10;;;3.27;;
4698;SDS011;33708;49.466;11.176;2022-07-29T02:06:40;8.63;;;2.63;;
4698;SDS011;33708;49.466;11.176;2022-07-29T02:09:07;13.97;;;3.57;;
4698;SDS011;33708;49.466;11.176;2022-07-29T02:11:36;8.30;;;2.80;;
4698;SDS011;33708;49.466;11.176;2022-07-29T02:14:03;7.53;;;2.20;;
4698;SDS011;33708;49.466;11.176;2022-07-29T02:16:31;7.50;;;2.60;;
4698;SDS011;33708;49.466;11.176;2022-07-29T02:19:00;10.20;;;2.90;;
4698;SDS011;33708;49.466;11.176;2022-07-29T02:21:26;9.63;;;3.00;;
4698;SDS011;33708;49.466;11.176;2022-07-29T02:23:55;7.77;;;2.93;;
4698;SDS011;33708;49.466;11.176;2022-07-29T02:26:24;12.30;;;2.80;;
4698;SDS011;33708;49.466;11.176;2022-07-29T02:28:54;17.63;;;2.83;;
4698;SDS011;33708;49.466;11.176;2022-07-29T02:31:21;11.83;;;3.23;;
4698;SDS011;33708;49.466;11.176;2022-07-29T02:33:52;8.40;;;2.90;;
4698;SDS011;33708;49.466;11.176;2022-07-29T02:36:21;7.70;;;2.90;;
4698;SDS011;33708;49.466;11.176;2022-07-29T02:38:48;9.83;;;2.47;;
4698;SDS011;33708;49.466;11.176;2022-07-29T02:41:16;10.17;;;2.70;;
4698;SDS011;33708;49.466;11.176;2022-07-29T02:44:13;6.87;;;2.73;;
4698;SDS011;33708;49.466;11.176;2022-07-29T02:46:42;8.27;;;2.40;;
4698;SDS011;33708;49.466;11.176;2022-07-29T02:49:35;12.00;;;2.40;;
4698;SDS011;33708;49.466;11.176;2022-07-29T02:52:04;9.60;;;2.70;;
4698;SDS011;33708;49.466;11.176;2022-07-29T02:54:55;7.67;;;2.70;;
4698;SDS011;33708;49.466;11.176;2022-07-29T02:57:43;9.60;;;2.73;;
4698;SDS011;33708;49.466;11.176;2022-07-29T03:00:12;8.60;;;2.70;;
4698;SDS011;33708;49.466;11.176;2022-07-29T03:02:40;7.80;;;2.80;;
4698;SDS011;33708;49.466;11.176;2022-07-29T03:05:11;14.60;;;3.20;;
4698;SDS011;33708;49.466;11.176;2022-07-29T03:07:40;12.70;;;3.13;;
4698;SDS011;33708;49.466;11.176;2022-07-29T03:10:10;8.87;;;2.83;;
4698;SDS011;33708;49.466;11.176;2022-07-29T03:12:37;7.70;;;2.53;;
4698;SDS011;33708;49.466;11.176;2022-07-29T03:15:03;7.90;;;3.03;;
4698;SDS011;33708;49.466;11.176;2022-07-29T03:17:30;9.50;;;3.47;;
4698;SDS011;33708;49.466;11.176;2022-07-29T03:19:57;11.60;;;3.53;;
4698;SDS011;33708;49.466;11.176;2022-07-29T03:22:23;9.10;;;2.80;;
4698;SDS011;33708;49.466;11.176;2022-07-29T03:24:49;9.47;;;3.03;;
4698;SDS011;33708;49.466;11.176;2022-07-29T03:27:15;7.87;;;3.13;;
4698;SDS011;33708;49.466;11.176;2022-07-29T03:29:41;9.70;;;3.50;;
4698;SDS011;33708;49.466;11.176;2022-07-29T03:32:07;11.27;;;2.90;;
4698;SDS011;33708;49.466;11.176;2022-07-29T03:34:32;8.40;;;3.00;;
4698;SDS011;33708;49.466;11.176;2022-07-29T03:36:58;9.00;;;2.30;;
4698;SDS011;33708;49.466;11.176;2022-07-29T03:39:25;8.10;;;3.00;;
4698;SDS011;33708;49.466;11.176;2022-07-29T03:41:55;10.07;;;2.80;;
4698;SDS011;33708;49.466;11.176;2022-07-29T03:44:23;10.23;;;2.70;;
4698;SDS011;33708;49.466;11.176;2022-07-29T03:46:52;8.57;;;2.70;;
4698;SDS011;33708;49.466;11.176;2022-07-29T03:49:20;18.43;;;3.10;;
4698;SDS011;33708;49.466;11.176;2022-07-29T03:51:48;6.70;;;2.50;;
4698;SDS011;33708;49.466;11.176;2022-07-29T03:54:14;9.27;;;2.73;;
4698;SDS011;33708;49.466;11.176;2022-07-29T03:56:41;9.37;;;3.20;;
4698;SDS011;33708;49.466;11.176;2022-07-29T03:59:12;9.83;;;2.60;;
4698;SDS011;33708;49.466;11.176;2022-07-29T04:01:40;7.63;;;2.37;;
4698;SDS011;33708;49.466;11.176;2022-07-29T04:04:06;14.67;;;2.67;;
4698;SDS011;33708;49.466;11.176;2022-07-29T04:06:39;10.03;;;2.70;;
4698;SDS011;33708;49.466;11.176;2022-07-29T04:09:06;12.87;;;3.17;;
4698;SDS011;33708;49.466;11.176;2022-07-29T04:11:32;11.93;;;3.00;;
4698;SDS011;33708;49.466;11.176;2022-07-29T04:13:58;9.63;;;2.90;;
4698;SDS011;33708;49.466;11.176;2022-07-29T04:16:24;12.43;;;2.67;;
4698;SDS011;33708;49.466;11.176;2022-07-29T04:18:49;14.10;;;2.60;;
4698;SDS011;33708;49.466;11.176;2022-07-29T04:21:15;10.37;;;2.90;;
4698;SDS011;33708;49.466;11.176;2022-07-29T04:23:40;10.70;;;3.00;;
4698;SDS011;33708;49.466;11.176;2022-07-29T04:26:06;8.17;;;2.40;;
4698;SDS011;33708;49.466;11.176;2022-07-29T04:28:35;9.73;;;2.80;;
4698;SDS011;33708;49.466;11.176;2022-07-29T04:31:04;8.83;;;2.30;;
4698;SDS011;33708;49.466;11.176;2022-07-29T04:33:30;10.40;;;2.67;;
4698;SDS011;33708;49.466;11.176;2022-07-29T04:35:55;7.33;;;2.53;;
4698;SDS011;33708;49.466;11.176;2022-07-29T04:38:21;10.77;;;2.90;;
4698;SDS011;33708;49.466;11.176;2022-07-29T04:40:47;9.17;;;2.70;;
4698;SDS011;33708;49.466;11.176;2022-07-29T04:43:12;17.93;;;2.70;;
4698;SDS011;33708;49.466;11.176;2022-07-29T04:45:38;7.93;;;2.90;;
4698;SDS011;33708;49.466;11.176;2022-07-29T04:48:04;9.20;;;2.63;;
4698;SDS011;33708;49.466;11.176;2022-07-29T04:50:30;8.47;;;2.80;;
4698;SDS011;33708;49.466;11.176;2022-07-29T04:52:55;7.53;;;2.73;;
4698;SDS011;33708;49.466;11.176;2022-07-29T04:55:21;14.70;;;2.93;;
4698;SDS011;33708;49.466;11.176;2022-07-29T04:57:47;14.97;;;3.33;;
4698;SDS011;33708;49.466;11.176;2022-07-29T05:00:13;14.10;;;3.00;;
4698;SDS011;33708;49.466;11.176;2022-07-29T05:02:39;11.47;;;2.53;;
4698;SDS011;33708;49.466;11.176;2022-07-29T05:05:04;10.13;;;2.97;;
4698;SDS011;33708;49.466;11.176;2022-07-29T05:07:30;8.33;;;2.73;;
4698;SDS011;33708;49.466;11.176;2022-07-29T05:09:56;10.77;;;3.47;;
4698;SDS011;33708;49.466;11.176;2022-07-29T05:12:22;11.33;;;2.90;;
4698;SDS011;33708;49.466;11.176;2022-07-29T05:14:49;8.77;;;2.70;;
4698;SDS011;33708;49.466;11.176;2022-07-29T05:17:14;13.33;;;2.70;;
4698;SDS011;33708;49.466;11.176;2022-07-29T05:19:40;6.77;;;2.47;;
4698;SDS011;33708;49.466;11.176;2022-07-29T05:22:06;12.60;;;3.10;;
4698;SDS011;33708;49.466;11.176;2022-07-29T05:24:31;10.10;;;3.10;;
4698;SDS011;33708;49.466;11.176;2022-07-29T05:26:57;13.13;;;3.03;;
4698;SDS011;33708;49.466;11.176;2022-07-29T05:29:23;8.77;;;2.97;;
4698;SDS011;33708;49.466;11.176;2022-07-29T05:31:48;7.37;;;3.10;;
4698;SDS011;33708;49.466;11.176;2022-07-29T05:34:16;13.73;;;2.40;;
4698;SDS011;33708;49.466;11.176;2022-07-29T05:36:41;8.70;;;2.53;;
4698;SDS011;33708;49.466;11.176;2022-07-29T05:39:07;7.70;;;2.30;;
4698;SDS011;33708;49.466;11.176;2022-07-29T05:41:33;8.17;;;2.33;;
4698;SDS011;33708;49.466;11.176;2022-07-29T05:43:59;13.93;;;2.67;;
4698;SDS011;33708;49.466;11.176;2022-07-29T05:46:24;7.93;;;2.70;;
4698;SDS011;33708;49.466;11.176;2022-07-29T05:48:50;13.10;;;2.50;;
4698;SDS011;33708;49.466;11.176;2022-07-29T05:51:16;12.23;;;2.57;;
4698;SDS011;33708;49.466;11.176;2022-07-29T05:53:41;12.83;;;3.30;;
4698;SDS011;33708;49.466;11.176;2022-07-29T05:56:07;11.10;;;2.40;;
4698;SDS011;33708;49.466;11.176;2022-07-29T05:58:33;14.73;;;3.47;;
4698;SDS011;33708;49.466;11.176;2022-07-29T06:00:58;12.83;;;2.47;;
4698;SDS011;33708;49.466;11.176;2022-07-29T06:03:25;11.00;;;2.70;;
4698;SDS011;33708;49.466;11.176;2022-07-29T06:05:51;11.23;;;2.80;;
4698;SDS011;33708;49.466;11.176;2022-07-29T06:08:17;7.50;;;2.67;;
4698;SDS011;33708;49.466;11.176;2022-07-29T06:10:43;8.57;;;2.80;;
4698;SDS011;33708;49.466;11.176;2022-07-29T06:13:10;11.97;;;2.67;;
4698;SDS011;33708;49.466;11.176;2022-07-29T06:15:38;9.10;;;2.43;;
4698;SDS011;33708;49.466;11.176;2022-07-29T06:18:03;20.93;;;2.77;;
4698;SDS011;33708;49.466;11.176;2022-07-29T06:20:32;8.30;;;3.20;;
4698;SDS011;33708;49.466;11.176;2022-07-29T06:22:58;8.83;;;2.80;;
4698;SDS011;33708;49.466;11.176;2022-07-29T06:25:24;7.97;;;2.60;;
4698;SDS011;33708;49.466;11.176;2022-07-29T06:27:50;9.33;;;2.47;;
4698;SDS011;33708;49.466;11.176;2022-07-29T06:30:15;7.30;;;2.40;;
4698;SDS011;33708;49.466;11.176;2022-07-29T06:32:41;9.50;;;2.73;;
4698;SDS011;33708;49.466;11.176;2022-07-29T06:35:07;8.47;;;2.50;;
4698;SDS011;33708;49.466;11.176;2022-07-29T06:37:33;8.90;;;3.10;;
4698;SDS011;33708;49.466;11.176;2022-07-29T06:40:00;11.03;;;2.50;;
4698;SDS011;33708;49.466;11.176;2022-07-29T06:42:44;8.20;;;2.60;;
4698;SDS011;33708;49.466;11.176;2022-07-29T06:45:10;7.80;;;3.00;;
4698;SDS011;33708;49.466;11.176;2022-07-29T06:47:36;10.93;;;2.57;;
4698;SDS011;33708;49.466;11.176;2022-07-29T06:50:02;8.77;;;2.60;;
4698;SDS011;33708;49.466;11.176;2022-07-29T06:52:28;8.13;;;2.83;;
4698;SDS011;33708;49.466;11.176;2022-07-29T06:54:54;7.83;;;2.23;;
4698;SDS011;33708;49.466;11.176;2022-07-29T06:57:20;9.47;;;2.70;;
4698;SDS011;33708;49.466;11.176;2022-07-29T06:59:46;9.97;;;3.00;;
4698;SDS011;33708;49.466;11.176;2022-07-29T07:02:12;14.80;;;3.20;;
4698;SDS011;33708;49.466;11.176;2022-07-29T07:04:38;8.20;;;2.60;;
4698;SDS011;33708;49.466;11.176;2022-07-29T07:07:04;8.63;;;2.40;;
4698;SDS011;33708;49.466;11.176;2022-07-29T07:09:29;11.10;;;2.60;;
4698;SDS011;33708;49.466;11.176;2022-07-29T07:11:55;9.27;;;2.37;;
4698;SDS011;33708;49.466;11.176;2022-07-29T07:14:21;8.53;;;2.50;;
4698;SDS011;33708;49.466;11.176;2022-07-29T07:16:46;10.13;;;2.90;;
4698;SDS011;33708;49.466;11.176;2022-07-29T07:19:12;10.27;;;3.23;;
4698;SDS011;33708;49.466;11.176;2022-07-29T07:21:38;15.80;;;2.97;;
4698;SDS011;33708;49.466;11.176;2022-07-29T07:24:03;13.03;;;3.00;;
4698;SDS011;33708;49.466;11.176;2022-07-29T07:26:29;8.73;;;2.80;;
4698;SDS011;33708;49.466;11.176;2022-07-29T07:28:55;12.10;;;3.07;;
4698;SDS011;33708;49.466;11.176;2022-07-29T07:31:21;11.00;;;2.80;;
4698;SDS011;33708;49.466;11.176;2022-07-29T07:33:47;8.37;;;3.27;;
4698;SDS011;33708;49.466;11.176;2022-07-29T07:36:13;14.73;;;3.30;;
4698;SDS011;33708;49.466;11.176;2022-07-29T07:38:38;7.20;;;2.93;;
4698;SDS011;33708;49.466;11.176;2022-07-29T07:41:04;16.27;;;3.17;;
4698;SDS011;33708;49.466;11.176;2022-07-29T07:43:30;11.20;;;3.00;;
4698;SDS011;33708;49.466;11.176;2022-07-29T07:45:55;12.27;;;2.87;;
4698;SDS011;33708;49.466;11.176;2022-07-29T07:48:21;11.17;;;2.80;;
4698;SDS011;33708;49.466;11.176;2022-07-29T07:50:47;11.00;;;3.00;;
4698;SDS011;33708;49.466;11.176;2022-07-29T07:53:15;8.33;;;2.77;;
4698;SDS011;33708;49.466;11.176;2022-07-29T07:55:41;10.33;;;3.10;;
4698;SDS011;33708;49.466;11.176;2022-07-29T07:58:07;9.97;;;2.67;;
4698;SDS011;33708;49.466;11.176;2022-07-29T08:00:34;8.20;;;2.73;;
4698;SDS011;33708;49.466;11.176;2022-07-29T08:02:59;10.20;;;2.93;;
4698;SDS011;33708;49.466;11.176;2022-07-29T08:05:25;9.13;;;3.10;;
4698;SDS011;33708;49.466;11.176;2022-07-29T08:07:51;10.47;;;2.90;;
4698;SDS011;33708;49.466;11.176;2022-07-29T08:10:17;9.87;;;3.17;;
4698;SDS011;33708;49.466;11.176;2022-07-29T08:13:07;8.70;;;2.90;;
4698;SDS011;33708;49.466;11.176;2022-07-29T08:15:34;9.43;;;3.00;;
4698;SDS011;33708;49.466;11.176;2022-07-29T08:18:00;8.67;;;3.20;;
4698;SDS011;33708;49.466;11.176;2022-07-29T08:20:26;10.63;;;3.20;;
4698;SDS011;33708;49.466;11.176;2022-07-29T08:22:52;9.37;;;3.10;;
4698;SDS011;33708;49.466;11.176;2022-07-29T08:25:18;15.53;;;3.50;;
4698;SDS011;33708;49.466;11.176;2022-07-29T08:27:45;10.23;;;3.60;;
4698;SDS011;33708;49.466;11.176;2022-07-29T08:30:12;9.40;;;2.80;;
4698;SDS011;33708;49.466;11.176;2022-07-29T08:32:38;9.93;;;2.77;;
4698;SDS011;33708;49.466;11.176;2022-07-29T08:35:03;13.00;;;3.77;;
4698;SDS011;33708;49.466;11.176;2022-07-29T08:37:29;10.63;;;3.00;;
4698;SDS011;33708;49.466;11.176;2022-07-29T08:39:55;11.53;;;2.73;;
4698;SDS011;33708;49.466;11.176;2022-07-29T08:42:21;18.27;;;3.33;;
4698;SDS011;33708;49.466;11.176;2022-07-29T08:44:46;11.10;;;3.30;;
4698;SDS011;33708;49.466;11.176;2022-07-29T08:47:16;11.03;;;2.80;;
4698;SDS011;33708;49.466;11.176;2022-07-29T08:49:43;25.47;;;3.30;;
4698;SDS011;33708;49.466;11.176;2022-07-29T08:52:10;12.70;;;3.30;;
4698;SDS011;33708;49.466;11.176;2022-07-29T08:54:36;10.10;;;2.47;;
4698;SDS011;33708;49.466;11.176;2022-07-29T08:57:04;8.53;;;2.63;;
4698;SDS011;33708;49.466;11.176;2022-07-29T08:59:30;6.63;;;2.70;;
4698;SDS011;33708;49.466;11.176;2022-07-29T09:01:58;9.67;;;3.37;;
4698;SDS011;33708;49.466;11.176;2022-07-29T09:04:26;13.20;;;3.47;;
4698;SDS011;33708;49.466;11.176;2022-07-29T09:06:55;8.10;;;3.00;;
4698;SDS011;33708;49.466;11.176;2022-07-29T09:09:25;15.83;;;3.13;;
4698;SDS011;33708;49.466;11.176;2022-07-29T09:11:51;10.77;;;3.33;;
4698;SDS011;33708;49.466;11.176;2022-07-29T09:14:18;7.77;;;3.37;;
4698;SDS011;33708;49.466;11.176;2022-07-29T09:16:45;15.80;;;3.73;;
4698;SDS011;33708;49.466;11.176;2022-07-29T09:19:30;11.60;;;3.87;;
4698;SDS011;33708;49.466;11.176;2022-07-29T09:21:59;6.70;;;3.17;;
4698;SDS011;33708;49.466;11.176;2022-07-29T09:29:55;13.00;;;4.07;;
4698;SDS011;33708;49.466;11.176;2022-07-29T09:32:32;14.37;;;3.50;;
4698;SDS011;33708;49.466;11.176;2022-07-29T09:37:45;15.90;;;3.77;;
4698;SDS011;33708;49.466;11.176;2022-07-29T09:40:12;12.53;;;3.50;;
4698;SDS011;33708;49.466;11.176;2022-07-29T09:42:42;13.40;;;3.50;;
4698;SDS011;33708;49.466;11.176;2022-07-29T09:45:08;13.53;;;3.30;;
4698;SDS011;33708;49.466;11.176;2022-07-29T09:47:40;12.13;;;3.50;;
4698;SDS011;33708;49.466;11.176;2022-07-29T09:50:09;7.90;;;3.20;;
4698;SDS011;33708;49.466;11.176;2022-07-29T09:52:44;12.30;;;3.93;;
4698;SDS011;33708;49.466;11.176;2022-07-29T09:55:11;10.43;;;3.90;;
4698;SDS011;33708;49.466;11.176;2022-07-29T09:57:37;12.40;;;4.40;;
4698;SDS011;33708;49.466;11.176;2022-07-29T10:02:31;11.87;;;4.00;;
4698;SDS011;33708;49.466;11.176;2022-07-29T10:04:58;16.43;;;4.00;;
4698;SDS011;33708;49.466;11.176;2022-07-29T10:07:26;9.50;;;4.60;;
4698;SDS011;33708;49.466;11.176;2022-07-29T10:10:07;9.30;;;4.30;;
4698;SDS011;33708;49.466;11.176;2022-07-29T10:12:33;9.80;;;4.07;;
4698;SDS011;33708;49.466;11.176;2022-07-29T10:14:59;9.80;;;3.60;;
4698;SDS011;33708;49.466;11.176;2022-07-29T10:17:27;13.73;;;4.20;;
4698;SDS011;33708;49.466;11.176;2022-07-29T10:19:53;9.03;;;3.70;;
4698;SDS011;33708;49.466;11.176;2022-07-29T10:22:20;10.23;;;4.00;;
4698;SDS011;33708;49.466;11.176;2022-07-29T10:24:46;15.60;;;4.07;;
4698;SDS011;33708;49.466;11.176;2022-07-29T10:27:13;10.70;;;4.50;;
4698;SDS011;33708;49.466;11.176;2022-07-29T10:29:39;10.20;;;4.37;;
4698;SDS011;33708;49.466;11.176;2022-07-29T10:32:15;11.70;;;4.43;;
4698;SDS011;33708;49.466;11.176;2022-07-29T10:35:12;11.27;;;4.87;;
4698;SDS011;33708;49.466;11.176;2022-07-29T10:43:44;9.87;;;4.10;;
4698;SDS011;33708;49.466;11.176;2022-07-29T10:46:12;12.00;;;4.83;;
4698;SDS011;33708;49.466;11.176;2022-07-29T10:59:42;10.80;;;4.77;;
4698;SDS011;33708;49.466;11.176;2022-07-29T11:05:04;11.07;;;4.30;;
4698;SDS011;33708;49.466;11.176;2022-07-29T11:07:31;13.20;;;4.80;;
4698;SDS011;33708;49.466;11.176;2022-07-29T11:23:19;13.57;;;4.13;;
4698;SDS011;33708;49.466;11.176;2022-07-29T11:34:15;8.50;;;5.13;;
4698;SDS011;33708;49.466;11.176;2022-07-29T11:39:35;14.80;;;4.80;;
4698;SDS011;33708;49.466;11.176;2022-07-29T11:47:36;15.07;;;5.50;;
4698;SDS011;33708;49.466;11.176;2022-07-29T11:50:04;11.37;;;4.77;;
4698;SDS011;33708;49.466;11.176;2022-07-29T11:52:41;10.80;;;5.00;;
4698;SDS011;33708;49.466;11.176;2022-07-29T11:55:11;13.70;;;4.90;;
4698;SDS011;33708;49.466;11.176;2022-07-29T11:57:53;18.37;;;4.97;;
4698;SDS011;33708;49.466;11.176;2022-07-29T12:00:21;10.87;;;4.90;;
4698;SDS011;33708;49.466;11.176;2022-07-29T12:02:47;11.83;;;4.90;;
4698;SDS011;33708;49.466;11.176;2022-07-29T12:05:13;10.60;;;4.70;;
4698;SDS011;33708;49.466;11.176;2022-07-29T12:07:38;9.53;;;5.00;;
4698;SDS011;33708;49.466;11.176;2022-07-29T12:10:05;11.77;;;5.50;;
4698;SDS011;33708;49.466;11.176;2022-07-29T12:12:32;10.37;;;5.03;;
4698;SDS011;33708;49.466;11.176;2022-07-29T12:15:10;9.03;;;5.00;;
4698;SDS011;33708;49.466;11.176;2022-07-29T12:17:40;14.53;;;5.00;;
4698;SDS011;33708;49.466;11.176;2022-07-29T12:20:05;14.50;;;4.70;;
4698;SDS011;33708;49.466;11.176;2022-07-29T12:22:33;10.60;;;5.57;;
4698;SDS011;33708;49.466;11.176;2022-07-29T12:25:09;13.80;;;4.87;;
4698;SDS011;33708;49.466;11.176;2022-07-29T12:27:36;9.13;;;4.47;;
4698;SDS011;33708;49.466;11.176;2022-07-29T12:30:07;11.90;;;4.80;;
4698;SDS011;33708;49.466;11.176;2022-07-29T12:32:44;7.37;;;3.73;;
4698;SDS011;33708;49.466;11.176;2022-07-29T12:35:14;18.83;;;5.17;;
4698;SDS011;33708;49.466;11.176;2022-07-29T12:37:42;16.30;;;5.23;;
4698;SDS011;33708;49.466;11.176;2022-07-29T12:40:10;8.60;;;4.00;;
4698;SDS011;33708;49.466;11.176;2022-07-29T12:42:38;10.40;;;4.33;;
4698;SDS011;33708;49.466;11.176;2022-07-29T12:45:04;8.77;;;4.50;;
4698;SDS011;33708;49.466;11.176;2022-07-29T12:47:30;12.10;;;4.60;;
4698;SDS011;33708;49.466;11.176;2022-07-29T12:52:35;8.73;;;4.63;;
4698;SDS011;33708;49.466;11.176;2022-07-29T12:55:01;11.17;;;4.90;;
4698;SDS011;33708;49.466;11.176;2022-07-29T12:57:28;14.33;;;5.10;;
4698;SDS011;33708;49.466;11.176;2022-07-29T13:00:01;10.20;;;4.87;;
4698;SDS011;33708;49.466;11.176;2022-07-29T13:02:32;8.93;;;3.87;;
4698;SDS011;33708;49.466;11.176;2022-07-29T13:04:59;15.70;;;4.63;;
4698;SDS011;33708;49.466;11.176;2022-07-29T13:07:27;11.77;;;4.90;;
4698;SDS011;33708;49.466;11.176;2022-07-29T13:09:54;10.10;;;4.30;;
4698;SDS011;33708;49.466;11.176;2022-07-29T13:12:39;11.03;;;4.80;;
4698;SDS011;33708;49.466;11.176;2022-07-29T13:15:31;8.60;;;4.30;;
4698;SDS011;33708;49.466;11.176;2022-07-29T13:17:58;11.00;;;4.03;;
4698;SDS011;33708;49.466;11.176;2022-07-29T13:20:24;10.70;;;3.60;;
4698;SDS011;33708;49.466;11.176;2022-07-29T13:22:54;13.60;;;3.70;;
4698;SDS011;33708;49.466;11.176;2022-07-29T13:25:30;8.33;;;3.50;;
4698;SDS011;33708;49.466;11.176;2022-07-29T13:27:57;13.80;;;4.03;;
4698;SDS011;33708;49.466;11.176;2022-07-29T13:30:24;7.73;;;3.40;;
4698;SDS011;33708;49.466;11.176;2022-07-29T13:32:51;9.97;;;4.10;;
4698;SDS011;33708;49.466;11.176;2022-07-29T13:35:18;8.23;;;3.37;;
4698;SDS011;33708;49.466;11.176;2022-07-29T13:37:44;14.20;;;3.57;;
4698;SDS011;33708;49.466;11.176;2022-07-29T13:40:10;11.90;;;3.00;;
4698;SDS011;33708;49.466;11.176;2022-07-29T13:42:37;8.60;;;3.23;;
4698;SDS011;33708;49.466;11.176;2022-07-29T13:45:03;10.73;;;3.30;;
4698;SDS011;33708;49.466;11.176;2022-07-29T13:47:29;16.07;;;4.33;;
4698;SDS011;33708;49.466;11.176;2022-07-29T13:49:55;10.67;;;3.47;;
4698;SDS011;33708;49.466;11.176;2022-07-29T13:52:20;14.00;;;2.50;;
4698;SDS011;33708;49.466;11.176;2022-07-29T13:54:46;8.27;;;2.80;;
4698;SDS011;33708;49.466;11.176;2022-07-29T13:57:13;8.13;;;2.97;;
4698;SDS011;33708;49.466;11.176;2022-07-29T13:59:39;10.00;;;3.00;;
4698;SDS011;33708;49.466;11.176;2022-07-29T14:02:07;6.80;;;2.63;;
4698;SDS011;33708;49.466;11.176;2022-07-29T14:04:33;6.43;;;2.70;;
4698;SDS011;33708;49.466;11.176;2022-07-29T14:06:58;9.33;;;2.60;;
4698;SDS011;33708;49.466;11.176;2022-07-29T14:09:24;8.80;;;2.73;;
4698;SDS011;33708;49.466;11.176;2022-07-29T14:11:50;9.07;;;3.43;;
4698;SDS011;33708;49.466;11.176;2022-07-29T14:14:17;7.07;;;2.87;;
4698;SDS011;33708;49.466;11.176;2022-07-29T14:16:43;7.80;;;2.80;;
4698;SDS011;33708;49.466;11.176;2022-07-29T14:19:09;10.40;;;2.93;;
4698;SDS011;33708;49.466;11.176;2022-07-29T14:21:36;7.97;;;3.30;;
4698;SDS011;33708;49.466;11.176;2022-07-29T14:24:02;10.27;;;3.20;;
4698;SDS011;33708;49.466;11.176;2022-07-29T14:26:28;7.87;;;3.50;;
4698;SDS011;33708;49.466;11.176;2022-07-29T14:28:54;11.60;;;3.30;;
4698;SDS011;33708;49.466;11.176;2022-07-29T14:31:19;7.00;;;3.13;;
4698;SDS011;33708;49.466;11.176;2022-07-29T14:33:45;9.80;;;3.80;;
4698;SDS011;33708;49.466;11.176;2022-07-29T14:36:11;11.13;;;3.50;;
4698;SDS011;33708;49.466;11.176;2022-07-29T14:38:36;17.20;;;3.97;;
4698;SDS011;33708;49.466;11.176;2022-07-29T14:41:04;9.93;;;3.70;;
4698;SDS011;33708;49.466;11.176;2022-07-29T14:43:31;13.00;;;4.10;;
4698;SDS011;33708;49.466;11.176;2022-07-29T14:45:56;10.93;;;3.67;;
4698;SDS011;33708;49.466;11.176;2022-07-29T14:48:22;9.10;;;3.53;;
4698;SDS011;33708;49.466;11.176;2022-07-29T14:50:48;14.93;;;3.40;;
4698;SDS011;33708;49.466;11.176;2022-07-29T14:53:13;11.13;;;3.23;;
4698;SDS011;33708;49.466;11.176;2022-07-29T14:55:39;7.83;;;3.37;;
4698;SDS011;33708;49.466;11.176;2022-07-29T14:58:07;16.00;;;3.57;;
4698;SDS011;33708;49.466;11.176;2022-07-29T15:00:32;15.93;;;3.33;;
4698;SDS011;33708;49.466;11.176;2022-07-29T15:02:59;12.57;;;3.77;;
4698;SDS011;33708;49.466;11.176;2022-07-29T15:05:25;9.63;;;3.73;;
4698;SDS011;33708;49.466;11.176;2022-07-29T15:07:51;11.43;;;3.90;;
4698;SDS011;33708;49.466;11.176;2022-07-29T15:10:17;7.73;;;3.00;;
4698;SDS011;33708;49.466;11.176;2022-07-29T15:12:43;9.90;;;3.47;;
4698;SDS011;33708;49.466;11.176;2022-07-29T15:15:09;12.50;;;4.10;;
4698;SDS011;33708;49.466;11.176;2022-07-29T15:17:35;9.30;;;3.80;;
4698;SDS011;33708;49.466;11.176;2022-07-29T15:20:00;13.27;;;4.27;;
4698;SDS011;33708;49.466;11.176;2022-07-29T15:22:26;9.07;;;3.97;;
4698;SDS011;33708;49.466;11.176;2022-07-29T15:24:52;10.63;;;3.70;;
4698;SDS011;33708;49.466;11.176;2022-07-29T15:27:18;10.70;;;3.90;;
4698;SDS011;33708;49.466;11.176;2022-07-29T15:29:43;10.33;;;4.30;;
4698;SDS011;33708;49.466;11.176;2022-07-29T15:32:09;10.73;;;4.37;;
4698;SDS011;33708;49.466;11.176;2022-07-29T15:34:36;16.23;;;4.97;;
4698;SDS011;33708;49.466;11.176;2022-07-29T15:37:03;11.70;;;3.77;;
4698;SDS011;33708;49.466;11.176;2022-07-29T15:39:29;9.83;;;4.33;;
4698;SDS011;33708;49.466;11.176;2022-07-29T15:41:55;11.83;;;4.20;;
4698;SDS011;33708;49.466;11.176;2022-07-29T15:44:21;11.70;;;4.10;;
4698;SDS011;33708;49.466;11.176;2022-07-29T15:46:47;15.60;;;4.87;;
4698;SDS011;33708;49.466;11.176;2022-07-29T15:49:29;13.13;;;5.10;;
4698;SDS011;33708;49.466;11.176;2022-07-29T15:52:05;12.33;;;4.30;;
4698;SDS011;33708;49.466;11.176;2022-07-29T15:54:33;11.20;;;4.13;;
4698;SDS011;33708;49.466;11.176;2022-07-29T15:56:59;8.93;;;4.07;;